sensor_id;sensor_type;location;lat;lon;timestamp;P1;durP1;ratioP1;P2;durP2;ratioP2
50161;SDS011;36061;48.116;11.612;2022-07-12T04:01:08;4.33;;;3.10;;
50161;SDS011;36061;48.116;11.612;2022-07-12T04:03:34;4.30;;;2.63;;
50161;SDS011;36061;48.116;11.612;2022-07-12T04:06:00;5.27;;;2.80;;
50161;SDS011;36061;48.116;11.612;2022-07-12T04:08:26;4.90;;;3.03;;
50161;SDS011;36061;48.116;11.612;2022-07-12T04:10:52;3.90;;;2.77;;
50161;SDS011;36061;48.116;11.612;2022-07-12T04:13:18;5.70;;;2.80;;
50161;SDS011;36061;48.116;11.612;2022-07-12T04:15:43;3.33;;;2.70;;
50161;SDS011;36061;48.116;11.612;2022-07-12T04:18:09;4.87;;;2.97;;
50161;SDS011;36061;48.116;11.612;2022-07-12T04:20:35;3.80;;;3.33;;
50161;SDS011;36061;48.116;11.612;2022-07-12T04:23:01;3.83;;;3.23;;
50161;SDS011;36061;48.116;11.612;2022-07-12T04:25:26;4.30;;;2.97;;
50161;SDS011;36061;48.116;11.612;2022-07-12T04:27:52;3.77;;;2.90;;
50161;SDS011;36061;48.116;11.612;2022-07-12T04:30:18;3.33;;;2.70;;
50161;SDS011;36061;48.116;11.612;2022-07-12T04:32:44;3.97;;;2.70;;
50161;SDS011;36061;48.116;11.612;2022-07-12T04:35:10;6.27;;;3.43;;
50161;SDS011;36061;48.116;11.612;2022-07-12T04:37:35;3.10;;;2.80;;
50161;SDS011;36061;48.116;11.612;2022-07-12T04:40:01;6.13;;;3.03;;
50161;SDS011;36061;48.116;11.612;2022-07-12T04:42:28;6.00;;;3.30;;
50161;SDS011;36061;48.116;11.612;2022-07-12T04:44:54;3.27;;;2.93;;
50161;SDS011;36061;48.116;11.612;2022-07-12T04:47:20;6.93;;;2.70;;
50161;SDS011;36061;48.116;11.612;2022-07-12T04:49:46;4.07;;;2.83;;
50161;SDS011;36061;48.116;11.612;2022-07-12T04:52:12;3.23;;;2.93;;
50161;SDS011;36061;48.116;11.612;2022-07-12T04:54:37;4.50;;;3.10;;
50161;SDS011;36061;48.116;11.612;2022-07-12T04:57:03;3.50;;;2.73;;
50161;SDS011;36061;48.116;11.612;2022-07-12T04:59:29;8.97;;;3.27;;
50161;SDS011;36061;48.116;11.612;2022-07-12T05:01:55;4.07;;;2.97;;
50161;SDS011;36061;48.116;11.612;2022-07-12T05:04:21;3.40;;;2.67;;
50161;SDS011;36061;48.116;11.612;2022-07-12T05:06:47;8.27;;;3.80;;
50161;SDS011;36061;48.116;11.612;2022-07-12T05:09:13;4.50;;;3.20;;
50161;SDS011;36061;48.116;11.612;2022-07-12T05:11:39;4.30;;;3.50;;
50161;SDS011;36061;48.116;11.612;2022-07-12T05:14:04;4.20;;;3.00;;
50161;SDS011;36061;48.116;11.612;2022-07-12T05:16:31;6.30;;;3.27;;
50161;SDS011;36061;48.116;11.612;2022-07-12T05:18:57;9.10;;;3.40;;
50161;SDS011;36061;48.116;11.612;2022-07-12T05:21:22;8.60;;;3.43;;
50161;SDS011;36061;48.116;11.612;2022-07-12T05:23:48;5.83;;;3.53;;
50161;SDS011;36061;48.116;11.612;2022-07-12T05:26:14;4.90;;;2.93;;
50161;SDS011;36061;48.116;11.612;2022-07-12T05:28:40;2.80;;;2.53;;
50161;SDS011;36061;48.116;11.612;2022-07-12T05:31:05;3.43;;;3.07;;
50161;SDS011;36061;48.116;11.612;2022-07-12T05:33:34;4.77;;;2.50;;
50161;SDS011;36061;48.116;11.612;2022-07-12T05:35:59;4.50;;;2.90;;
50161;SDS011;36061;48.116;11.612;2022-07-12T05:38:26;4.17;;;2.40;;
50161;SDS011;36061;48.116;11.612;2022-07-12T05:40:52;2.37;;;1.90;;
50161;SDS011;36061;48.116;11.612;2022-07-12T05:43:18;4.70;;;2.43;;
50161;SDS011;36061;48.116;11.612;2022-07-12T05:45:43;1.80;;;1.70;;
50161;SDS011;36061;48.116;11.612;2022-07-12T05:48:09;2.77;;;1.87;;
50161;SDS011;36061;48.116;11.612;2022-07-12T05:50:35;2.73;;;2.10;;
50161;SDS011;36061;48.116;11.612;2022-07-12T05:53:01;2.00;;;1.80;;
50161;SDS011;36061;48.116;11.612;2022-07-12T05:55:45;2.10;;;1.90;;
50161;SDS011;36061;48.116;11.612;2022-07-12T05:58:11;2.77;;;1.93;;
50161;SDS011;36061;48.116;11.612;2022-07-12T06:00:37;2.13;;;1.93;;
50161;SDS011;36061;48.116;11.612;2022-07-12T06:03:02;3.27;;;2.10;;
50161;SDS011;36061;48.116;11.612;2022-07-12T06:05:28;3.10;;;2.20;;
50161;SDS011;36061;48.116;11.612;2022-07-12T06:07:54;3.23;;;2.83;;
50161;SDS011;36061;48.116;11.612;2022-07-12T06:10:20;4.30;;;2.80;;
50161;SDS011;36061;48.116;11.612;2022-07-12T06:12:45;5.67;;;3.07;;
50161;SDS011;36061;48.116;11.612;2022-07-12T06:15:11;4.00;;;2.90;;
50161;SDS011;36061;48.116;11.612;2022-07-12T06:17:37;5.13;;;2.67;;
50161;SDS011;36061;48.116;11.612;2022-07-12T06:20:03;4.00;;;3.13;;
50161;SDS011;36061;48.116;11.612;2022-07-12T06:22:29;8.60;;;3.23;;
50161;SDS011;36061;48.116;11.612;2022-07-12T06:24:55;6.13;;;3.07;;
50161;SDS011;36061;48.116;11.612;2022-07-12T06:27:21;6.80;;;3.30;;
50161;SDS011;36061;48.116;11.612;2022-07-12T06:29:47;6.23;;;3.13;;
50161;SDS011;36061;48.116;11.612;2022-07-12T06:32:14;6.07;;;3.20;;
50161;SDS011;36061;48.116;11.612;2022-07-12T06:34:43;2.80;;;2.40;;
50161;SDS011;36061;48.116;11.612;2022-07-12T06:37:09;5.30;;;2.73;;
50161;SDS011;36061;48.116;11.612;2022-07-12T06:39:38;3.27;;;2.40;;
50161;SDS011;36061;48.116;11.612;2022-07-12T06:42:04;3.30;;;2.60;;
50161;SDS011;36061;48.116;11.612;2022-07-12T06:44:33;3.60;;;2.57;;
50161;SDS011;36061;48.116;11.612;2022-07-12T06:46:59;2.90;;;2.17;;
50161;SDS011;36061;48.116;11.612;2022-07-12T06:49:25;2.40;;;1.77;;
50161;SDS011;36061;48.116;11.612;2022-07-12T06:51:51;4.70;;;2.33;;
50161;SDS011;36061;48.116;11.612;2022-07-12T06:54:17;2.77;;;1.93;;
50161;SDS011;36061;48.116;11.612;2022-07-12T06:56:43;2.97;;;2.10;;
50161;SDS011;36061;48.116;11.612;2022-07-12T06:59:09;3.40;;;2.47;;
50161;SDS011;36061;48.116;11.612;2022-07-12T07:01:36;5.67;;;2.00;;
50161;SDS011;36061;48.116;11.612;2022-07-12T07:04:02;2.83;;;2.00;;
50161;SDS011;36061;48.116;11.612;2022-07-12T07:06:29;4.07;;;1.90;;
50161;SDS011;36061;48.116;11.612;2022-07-12T07:08:55;2.53;;;1.97;;
50161;SDS011;36061;48.116;11.612;2022-07-12T07:11:20;2.27;;;1.83;;
50161;SDS011;36061;48.116;11.612;2022-07-12T07:13:46;2.17;;;1.83;;
50161;SDS011;36061;48.116;11.612;2022-07-12T07:16:12;4.50;;;1.70;;
50161;SDS011;36061;48.116;11.612;2022-07-12T07:18:39;3.87;;;1.80;;
50161;SDS011;36061;48.116;11.612;2022-07-12T07:21:05;2.67;;;1.40;;
50161;SDS011;36061;48.116;11.612;2022-07-12T07:23:32;3.83;;;1.80;;
50161;SDS011;36061;48.116;11.612;2022-07-12T07:25:58;2.77;;;1.77;;
50161;SDS011;36061;48.116;11.612;2022-07-12T07:28:24;3.40;;;2.07;;
50161;SDS011;36061;48.116;11.612;2022-07-12T07:30:49;3.90;;;1.90;;
50161;SDS011;36061;48.116;11.612;2022-07-12T07:33:21;2.30;;;1.93;;
50161;SDS011;36061;48.116;11.612;2022-07-12T07:35:48;2.47;;;1.77;;
50161;SDS011;36061;48.116;11.612;2022-07-12T07:38:16;7.77;;;2.07;;
50161;SDS011;36061;48.116;11.612;2022-07-12T07:40:42;6.50;;;1.53;;
50161;SDS011;36061;48.116;11.612;2022-07-12T07:43:08;2.63;;;2.27;;
50161;SDS011;36061;48.116;11.612;2022-07-12T07:45:34;3.63;;;1.83;;
50161;SDS011;36061;48.116;11.612;2022-07-12T07:48:00;1.97;;;1.43;;
50161;SDS011;36061;48.116;11.612;2022-07-12T07:50:27;3.70;;;1.50;;
50161;SDS011;36061;48.116;11.612;2022-07-12T07:52:53;2.50;;;1.53;;
50161;SDS011;36061;48.116;11.612;2022-07-12T07:55:19;1.63;;;1.47;;
50161;SDS011;36061;48.116;11.612;2022-07-12T07:57:44;1.20;;;1.10;;
50161;SDS011;36061;48.116;11.612;2022-07-12T08:00:12;1.77;;;1.50;;
50161;SDS011;36061;48.116;11.612;2022-07-12T08:02:38;1.43;;;1.30;;
50161;SDS011;36061;48.116;11.612;2022-07-12T08:05:05;3.50;;;1.73;;
50161;SDS011;36061;48.116;11.612;2022-07-12T08:07:31;2.33;;;1.57;;
50161;SDS011;36061;48.116;11.612;2022-07-12T08:09:57;1.57;;;1.47;;
50161;SDS011;36061;48.116;11.612;2022-07-12T08:12:22;1.97;;;1.70;;
50161;SDS011;36061;48.116;11.612;2022-07-12T08:14:48;2.20;;;1.37;;
50161;SDS011;36061;48.116;11.612;2022-07-12T08:17:21;5.50;;;1.93;;
50161;SDS011;36061;48.116;11.612;2022-07-12T08:19:53;1.90;;;1.30;;
50161;SDS011;36061;48.116;11.612;2022-07-12T08:22:19;4.40;;;1.60;;
50161;SDS011;36061;48.116;11.612;2022-07-12T08:24:45;5.50;;;1.73;;
50161;SDS011;36061;48.116;11.612;2022-07-12T08:27:10;1.37;;;1.27;;
50161;SDS011;36061;48.116;11.612;2022-07-12T08:29:36;3.30;;;1.20;;
50161;SDS011;36061;48.116;11.612;2022-07-12T08:32:02;4.37;;;1.80;;
50161;SDS011;36061;48.116;11.612;2022-07-12T08:34:34;3.40;;;1.50;;
50161;SDS011;36061;48.116;11.612;2022-07-12T08:37:36;1.50;;;1.40;;
50161;SDS011;36061;48.116;11.612;2022-07-12T08:40:02;1.70;;;1.57;;
50161;SDS011;36061;48.116;11.612;2022-07-12T08:42:30;6.20;;;1.30;;
50161;SDS011;36061;48.116;11.612;2022-07-12T08:44:56;2.00;;;1.60;;
50161;SDS011;36061;48.116;11.612;2022-07-12T08:47:22;1.60;;;1.50;;
50161;SDS011;36061;48.116;11.612;2022-07-12T08:52:46;14.40;;;2.57;;
50161;SDS011;36061;48.116;11.612;2022-07-12T08:55:34;4.73;;;1.70;;
50161;SDS011;36061;48.116;11.612;2022-07-12T08:58:00;3.33;;;1.30;;
50161;SDS011;36061;48.116;11.612;2022-07-12T09:00:28;1.93;;;1.63;;
50161;SDS011;36061;48.116;11.612;2022-07-12T09:02:59;1.77;;;1.40;;
50161;SDS011;36061;48.116;11.612;2022-07-12T09:05:27;4.77;;;1.50;;
50161;SDS011;36061;48.116;11.612;2022-07-12T09:08:10;1.87;;;1.23;;
50161;SDS011;36061;48.116;11.612;2022-07-12T09:13:16;3.57;;;1.27;;
50161;SDS011;36061;48.116;11.612;2022-07-12T09:15:42;2.70;;;2.20;;
50161;SDS011;36061;48.116;11.612;2022-07-12T09:18:08;1.47;;;1.30;;
50161;SDS011;36061;48.116;11.612;2022-07-12T09:20:38;1.50;;;1.40;;
50161;SDS011;36061;48.116;11.612;2022-07-12T09:23:08;4.93;;;1.77;;
50161;SDS011;36061;48.116;11.612;2022-07-12T09:25:36;1.70;;;1.27;;
50161;SDS011;36061;48.116;11.612;2022-07-12T09:28:03;1.60;;;1.40;;
50161;SDS011;36061;48.116;11.612;2022-07-12T09:30:31;1.63;;;1.50;;
50161;SDS011;36061;48.116;11.612;2022-07-12T09:32:58;4.63;;;1.60;;
50161;SDS011;36061;48.116;11.612;2022-07-12T09:38:54;1.60;;;1.50;;
50161;SDS011;36061;48.116;11.612;2022-07-12T09:41:26;1.83;;;1.67;;
50161;SDS011;36061;48.116;11.612;2022-07-12T09:43:52;11.57;;;2.63;;
50161;SDS011;36061;48.116;11.612;2022-07-12T09:46:18;2.53;;;1.40;;
50161;SDS011;36061;48.116;11.612;2022-07-12T09:48:45;1.47;;;1.37;;
50161;SDS011;36061;48.116;11.612;2022-07-12T09:51:17;1.73;;;1.40;;
50161;SDS011;36061;48.116;11.612;2022-07-12T09:53:46;2.30;;;1.30;;
50161;SDS011;36061;48.116;11.612;2022-07-12T09:56:16;2.00;;;1.60;;
50161;SDS011;36061;48.116;11.612;2022-07-12T09:58:54;2.30;;;1.40;;
50161;SDS011;36061;48.116;11.612;2022-07-12T10:01:22;2.47;;;1.37;;
50161;SDS011;36061;48.116;11.612;2022-07-12T10:03:52;1.97;;;1.47;;
50161;SDS011;36061;48.116;11.612;2022-07-12T10:06:23;1.60;;;1.37;;
50161;SDS011;36061;48.116;11.612;2022-07-12T10:08:51;1.03;;;0.90;;
50161;SDS011;36061;48.116;11.612;2022-07-12T10:11:20;3.47;;;1.10;;
50161;SDS011;36061;48.116;11.612;2022-07-12T10:13:50;1.40;;;1.10;;
50161;SDS011;36061;48.116;11.612;2022-07-12T10:16:18;1.93;;;1.27;;
50161;SDS011;36061;48.116;11.612;2022-07-12T10:21:49;1.67;;;1.20;;
50161;SDS011;36061;48.116;11.612;2022-07-12T10:29:42;1.83;;;1.10;;
50161;SDS011;36061;48.116;11.612;2022-07-12T10:32:32;1.30;;;1.20;;
50161;SDS011;36061;48.116;11.612;2022-07-12T10:35:00;1.50;;;1.20;;
50161;SDS011;36061;48.116;11.612;2022-07-12T10:37:27;3.23;;;1.60;;
50161;SDS011;36061;48.116;11.612;2022-07-12T10:42:35;3.57;;;1.30;;
50161;SDS011;36061;48.116;11.612;2022-07-12T10:45:23;1.80;;;1.10;;
50161;SDS011;36061;48.116;11.612;2022-07-12T10:47:55;1.40;;;1.30;;
50161;SDS011;36061;48.116;11.612;2022-07-12T10:53:43;1.63;;;1.20;;
50161;SDS011;36061;48.116;11.612;2022-07-12T10:56:12;1.00;;;0.97;;
50161;SDS011;36061;48.116;11.612;2022-07-12T11:03:47;1.50;;;1.40;;
50161;SDS011;36061;48.116;11.612;2022-07-12T11:06:18;1.30;;;1.20;;
50161;SDS011;36061;48.116;11.612;2022-07-12T11:08:58;1.37;;;1.10;;
50161;SDS011;36061;48.116;11.612;2022-07-12T11:13:55;1.07;;;0.97;;
50161;SDS011;36061;48.116;11.612;2022-07-12T11:16:22;1.17;;;0.93;;
50161;SDS011;36061;48.116;11.612;2022-07-12T11:18:49;2.10;;;1.00;;
50161;SDS011;36061;48.116;11.612;2022-07-12T11:21:15;1.33;;;1.03;;
50161;SDS011;36061;48.116;11.612;2022-07-12T11:23:49;1.47;;;1.20;;
50161;SDS011;36061;48.116;11.612;2022-07-12T11:26:15;1.07;;;0.87;;
50161;SDS011;36061;48.116;11.612;2022-07-12T11:28:45;1.60;;;1.00;;
50161;SDS011;36061;48.116;11.612;2022-07-12T11:31:19;2.10;;;1.40;;
50161;SDS011;36061;48.116;11.612;2022-07-12T11:33:47;1.30;;;1.20;;
50161;SDS011;36061;48.116;11.612;2022-07-12T11:36:14;1.43;;;1.17;;
50161;SDS011;36061;48.116;11.612;2022-07-12T11:38:41;1.27;;;1.17;;
50161;SDS011;36061;48.116;11.612;2022-07-12T11:41:08;2.00;;;1.20;;
50161;SDS011;36061;48.116;11.612;2022-07-12T11:43:36;1.47;;;1.00;;
50161;SDS011;36061;48.116;11.612;2022-07-12T11:46:03;2.10;;;1.10;;
50161;SDS011;36061;48.116;11.612;2022-07-12T11:48:30;1.07;;;1.07;;
50161;SDS011;36061;48.116;11.612;2022-07-12T11:51:02;3.70;;;1.23;;
50161;SDS011;36061;48.116;11.612;2022-07-12T11:53:31;1.13;;;1.03;;
50161;SDS011;36061;48.116;11.612;2022-07-12T11:55:58;1.43;;;0.70;;
50161;SDS011;36061;48.116;11.612;2022-07-12T11:58:25;3.23;;;1.10;;
50161;SDS011;36061;48.116;11.612;2022-07-12T12:00:52;1.13;;;1.10;;
50161;SDS011;36061;48.116;11.612;2022-07-12T12:03:19;2.70;;;0.70;;
50161;SDS011;36061;48.116;11.612;2022-07-12T12:05:50;1.07;;;0.90;;
50161;SDS011;36061;48.116;11.612;2022-07-12T12:08:17;2.13;;;0.90;;
50161;SDS011;36061;48.116;11.612;2022-07-12T12:10:51;0.90;;;0.90;;
50161;SDS011;36061;48.116;11.612;2022-07-12T12:13:19;2.57;;;1.63;;
50161;SDS011;36061;48.116;11.612;2022-07-12T12:15:52;3.07;;;1.13;;
50161;SDS011;36061;48.116;11.612;2022-07-12T12:21:10;1.73;;;1.10;;
50161;SDS011;36061;48.116;11.612;2022-07-12T12:23:38;3.70;;;1.00;;
50161;SDS011;36061;48.116;11.612;2022-07-12T12:28:42;0.90;;;0.90;;
50161;SDS011;36061;48.116;11.612;2022-07-12T12:31:09;2.93;;;0.80;;
50161;SDS011;36061;48.116;11.612;2022-07-12T12:33:40;2.60;;;1.70;;
50161;SDS011;36061;48.116;11.612;2022-07-12T12:39:03;1.30;;;1.13;;
50161;SDS011;36061;48.116;11.612;2022-07-12T12:41:37;2.00;;;1.20;;
50161;SDS011;36061;48.116;11.612;2022-07-12T12:44:05;1.87;;;0.90;;
50161;SDS011;36061;48.116;11.612;2022-07-12T12:46:51;1.00;;;0.70;;
50161;SDS011;36061;48.116;11.612;2022-07-12T12:52:09;1.23;;;1.13;;
50161;SDS011;36061;48.116;11.612;2022-07-12T12:54:35;1.77;;;0.87;;
50161;SDS011;36061;48.116;11.612;2022-07-12T12:57:03;0.83;;;0.83;;
50161;SDS011;36061;48.116;11.612;2022-07-12T12:59:30;0.90;;;0.90;;
50161;SDS011;36061;48.116;11.612;2022-07-12T13:01:56;3.60;;;0.80;;
50161;SDS011;36061;48.116;11.612;2022-07-12T13:04:22;2.00;;;1.20;;
50161;SDS011;36061;48.116;11.612;2022-07-12T13:06:52;1.07;;;0.97;;
50161;SDS011;36061;48.116;11.612;2022-07-12T13:09:17;0.80;;;0.80;;
50161;SDS011;36061;48.116;11.612;2022-07-12T13:11:47;2.73;;;1.00;;
50161;SDS011;36061;48.116;11.612;2022-07-12T13:14:14;1.73;;;1.20;;
50161;SDS011;36061;48.116;11.612;2022-07-12T13:16:42;1.03;;;0.90;;
50161;SDS011;36061;48.116;11.612;2022-07-12T13:19:08;3.37;;;1.27;;
50161;SDS011;36061;48.116;11.612;2022-07-12T13:21:34;1.07;;;0.77;;
50161;SDS011;36061;48.116;11.612;2022-07-12T13:24:00;1.20;;;1.10;;
50161;SDS011;36061;48.116;11.612;2022-07-12T13:26:29;3.33;;;1.00;;
50161;SDS011;36061;48.116;11.612;2022-07-12T13:28:55;1.37;;;1.27;;
50161;SDS011;36061;48.116;11.612;2022-07-12T13:31:22;1.53;;;0.90;;
50161;SDS011;36061;48.116;11.612;2022-07-12T13:33:48;1.10;;;0.93;;
50161;SDS011;36061;48.116;11.612;2022-07-12T13:36:16;1.80;;;0.70;;
50161;SDS011;36061;48.116;11.612;2022-07-12T13:38:42;0.83;;;0.70;;
50161;SDS011;36061;48.116;11.612;2022-07-12T13:41:08;1.33;;;0.90;;
50161;SDS011;36061;48.116;11.612;2022-07-12T13:43:33;1.00;;;1.00;;
50161;SDS011;36061;48.116;11.612;2022-07-12T13:45:59;1.03;;;0.97;;
50161;SDS011;36061;48.116;11.612;2022-07-12T13:48:25;1.10;;;1.00;;
50161;SDS011;36061;48.116;11.612;2022-07-12T13:50:51;2.13;;;0.80;;
50161;SDS011;36061;48.116;11.612;2022-07-12T13:53:17;1.10;;;0.80;;
50161;SDS011;36061;48.116;11.612;2022-07-12T13:55:46;1.40;;;0.90;;
50161;SDS011;36061;48.116;11.612;2022-07-12T13:58:11;1.00;;;0.90;;
50161;SDS011;36061;48.116;11.612;2022-07-12T14:00:40;2.00;;;0.90;;
50161;SDS011;36061;48.116;11.612;2022-07-12T14:03:07;1.17;;;1.03;;
50161;SDS011;36061;48.116;11.612;2022-07-12T14:05:33;1.83;;;1.10;;
50161;SDS011;36061;48.116;11.612;2022-07-12T14:08:00;0.80;;;0.80;;
50161;SDS011;36061;48.116;11.612;2022-07-12T14:10:25;1.20;;;1.00;;
50161;SDS011;36061;48.116;11.612;2022-07-12T14:12:51;0.90;;;0.90;;
50161;SDS011;36061;48.116;11.612;2022-07-12T14:15:20;0.70;;;0.70;;
50161;SDS011;36061;48.116;11.612;2022-07-12T14:18:01;0.83;;;0.83;;
50161;SDS011;36061;48.116;11.612;2022-07-12T14:20:31;0.90;;;0.90;;
50161;SDS011;36061;48.116;11.612;2022-07-12T14:22:58;0.80;;;0.80;;
50161;SDS011;36061;48.116;11.612;2022-07-12T14:25:24;0.97;;;0.93;;
50161;SDS011;36061;48.116;11.612;2022-07-12T14:27:50;2.03;;;0.90;;
50161;SDS011;36061;48.116;11.612;2022-07-12T14:30:16;1.03;;;0.93;;
50161;SDS011;36061;48.116;11.612;2022-07-12T14:32:42;0.80;;;0.80;;
50161;SDS011;36061;48.116;11.612;2022-07-12T14:35:08;1.03;;;1.00;;
50161;SDS011;36061;48.116;11.612;2022-07-12T14:37:35;1.27;;;0.70;;
50161;SDS011;36061;48.116;11.612;2022-07-12T14:40:02;0.70;;;0.70;;
50161;SDS011;36061;48.116;11.612;2022-07-12T14:42:30;0.70;;;0.70;;
50161;SDS011;36061;48.116;11.612;2022-07-12T14:44:56;0.90;;;0.90;;
50161;SDS011;36061;48.116;11.612;2022-07-12T14:47:22;1.87;;;0.80;;
50161;SDS011;36061;48.116;11.612;2022-07-12T14:49:48;3.20;;;1.10;;
50161;SDS011;36061;48.116;11.612;2022-07-12T14:52:15;1.57;;;0.90;;
50161;SDS011;36061;48.116;11.612;2022-07-12T14:54:41;1.67;;;0.87;;
50161;SDS011;36061;48.116;11.612;2022-07-12T14:57:07;1.57;;;0.97;;
50161;SDS011;36061;48.116;11.612;2022-07-12T14:59:33;1.10;;;1.00;;
50161;SDS011;36061;48.116;11.612;2022-07-12T15:02:02;1.20;;;1.10;;
50161;SDS011;36061;48.116;11.612;2022-07-12T15:04:28;5.50;;;1.23;;
50161;SDS011;36061;48.116;11.612;2022-07-12T15:06:54;1.00;;;0.90;;
50161;SDS011;36061;48.116;11.612;2022-07-12T15:09:20;0.93;;;0.80;;
50161;SDS011;36061;48.116;11.612;2022-07-12T15:11:46;1.90;;;1.30;;
50161;SDS011;36061;48.116;11.612;2022-07-12T15:14:11;2.13;;;1.17;;
50161;SDS011;36061;48.116;11.612;2022-07-12T15:16:37;2.70;;;0.97;;
50161;SDS011;36061;48.116;11.612;2022-07-12T15:19:03;3.13;;;1.30;;
50161;SDS011;36061;48.116;11.612;2022-07-12T15:21:29;1.37;;;1.10;;
50161;SDS011;36061;48.116;11.612;2022-07-12T15:23:54;2.13;;;1.23;;
50161;SDS011;36061;48.116;11.612;2022-07-12T15:26:20;2.47;;;1.20;;
50161;SDS011;36061;48.116;11.612;2022-07-12T15:28:50;1.40;;;0.93;;
50161;SDS011;36061;48.116;11.612;2022-07-12T15:31:18;1.03;;;0.70;;
50161;SDS011;36061;48.116;11.612;2022-07-12T15:33:44;1.37;;;0.90;;
50161;SDS011;36061;48.116;11.612;2022-07-12T15:36:10;0.90;;;0.80;;
50161;SDS011;36061;48.116;11.612;2022-07-12T15:38:36;1.33;;;0.70;;
50161;SDS011;36061;48.116;11.612;2022-07-12T15:41:02;0.90;;;0.90;;
50161;SDS011;36061;48.116;11.612;2022-07-12T15:43:28;1.50;;;1.07;;
50161;SDS011;36061;48.116;11.612;2022-07-12T15:45:53;1.03;;;0.73;;
50161;SDS011;36061;48.116;11.612;2022-07-12T15:48:19;1.20;;;0.90;;
50161;SDS011;36061;48.116;11.612;2022-07-12T15:50:45;1.20;;;1.10;;
50161;SDS011;36061;48.116;11.612;2022-07-12T15:53:11;1.40;;;1.00;;
50161;SDS011;36061;48.116;11.612;2022-07-12T15:55:56;2.10;;;0.87;;
50161;SDS011;36061;48.116;11.612;2022-07-12T15:58:33;2.77;;;1.10;;
50161;SDS011;36061;48.116;11.612;2022-07-12T16:01:03;2.27;;;1.00;;
50161;SDS011;36061;48.116;11.612;2022-07-12T16:03:30;2.43;;;1.77;;
50161;SDS011;36061;48.116;11.612;2022-07-12T16:05:57;2.13;;;1.00;;
50161;SDS011;36061;48.116;11.612;2022-07-12T16:08:24;3.23;;;1.10;;
50161;SDS011;36061;48.116;11.612;2022-07-12T16:10:52;2.67;;;1.50;;
50161;SDS011;36061;48.116;11.612;2022-07-12T16:13:18;3.00;;;1.23;;
50161;SDS011;36061;48.116;11.612;2022-07-12T16:15:44;2.20;;;1.17;;
50161;SDS011;36061;48.116;11.612;2022-07-12T16:18:10;1.33;;;1.20;;
50161;SDS011;36061;48.116;11.612;2022-07-12T16:20:37;0.93;;;0.90;;
50161;SDS011;36061;48.116;11.612;2022-07-12T16:23:03;2.07;;;1.57;;
50161;SDS011;36061;48.116;11.612;2022-07-12T16:25:32;4.00;;;1.20;;
50161;SDS011;36061;48.116;11.612;2022-07-12T16:27:59;0.80;;;0.80;;
50161;SDS011;36061;48.116;11.612;2022-07-12T16:30:26;1.00;;;0.90;;
50161;SDS011;36061;48.116;11.612;2022-07-12T16:32:52;0.90;;;0.90;;
50161;SDS011;36061;48.116;11.612;2022-07-12T16:35:18;2.10;;;1.00;;
50161;SDS011;36061;48.116;11.612;2022-07-12T16:37:44;3.60;;;0.93;;
50161;SDS011;36061;48.116;11.612;2022-07-12T16:40:11;0.97;;;0.87;;
50161;SDS011;36061;48.116;11.612;2022-07-12T16:42:37;0.80;;;0.80;;
50161;SDS011;36061;48.116;11.612;2022-07-12T16:45:03;1.83;;;1.07;;
50161;SDS011;36061;48.116;11.612;2022-07-12T16:47:29;0.80;;;0.80;;
50161;SDS011;36061;48.116;11.612;2022-07-12T16:49:55;0.73;;;0.73;;
50161;SDS011;36061;48.116;11.612;2022-07-12T16:52:20;2.37;;;0.83;;
50161;SDS011;36061;48.116;11.612;2022-07-12T16:54:46;1.90;;;1.40;;
50161;SDS011;36061;48.116;11.612;2022-07-12T16:57:12;2.13;;;0.90;;
50161;SDS011;36061;48.116;11.612;2022-07-12T16:59:38;1.87;;;1.07;;
50161;SDS011;36061;48.116;11.612;2022-07-12T17:02:03;1.47;;;1.07;;
50161;SDS011;36061;48.116;11.612;2022-07-12T17:04:29;1.63;;;0.90;;
50161;SDS011;36061;48.116;11.612;2022-07-12T17:06:58;1.00;;;1.00;;
50161;SDS011;36061;48.116;11.612;2022-07-12T17:09:24;1.10;;;1.03;;
50161;SDS011;36061;48.116;11.612;2022-07-12T17:11:51;1.33;;;1.20;;
50161;SDS011;36061;48.116;11.612;2022-07-12T17:14:17;4.07;;;1.20;;
50161;SDS011;36061;48.116;11.612;2022-07-12T17:16:46;1.73;;;1.00;;
50161;SDS011;36061;48.116;11.612;2022-07-12T17:19:11;1.40;;;1.13;;
50161;SDS011;36061;48.116;11.612;2022-07-12T17:21:39;1.73;;;1.10;;
50161;SDS011;36061;48.116;11.612;2022-07-12T17:24:07;2.47;;;1.07;;
50161;SDS011;36061;48.116;11.612;2022-07-12T17:26:32;1.47;;;1.00;;
50161;SDS011;36061;48.116;11.612;2022-07-12T17:28:58;1.83;;;1.10;;
50161;SDS011;36061;48.116;11.612;2022-07-12T17:31:24;0.80;;;0.80;;
50161;SDS011;36061;48.116;11.612;2022-07-12T17:33:50;2.33;;;1.90;;
50161;SDS011;36061;48.116;11.612;2022-07-12T17:36:21;3.87;;;2.13;;
50161;SDS011;36061;48.116;11.612;2022-07-12T17:38:47;2.47;;;1.10;;
50161;SDS011;36061;48.116;11.612;2022-07-12T17:41:14;0.97;;;0.90;;
50161;SDS011;36061;48.116;11.612;2022-07-12T17:43:40;1.53;;;1.20;;
50161;SDS011;36061;48.116;11.612;2022-07-12T17:46:06;2.30;;;1.50;;
50161;SDS011;36061;48.116;11.612;2022-07-12T17:48:33;2.17;;;0.80;;
50161;SDS011;36061;48.116;11.612;2022-07-12T17:50:59;1.20;;;1.10;;
50161;SDS011;36061;48.116;11.612;2022-07-12T17:53:25;1.10;;;1.00;;
50161;SDS011;36061;48.116;11.612;2022-07-12T17:55:51;1.60;;;1.03;;
50161;SDS011;36061;48.116;11.612;2022-07-12T17:58:17;1.23;;;0.90;;
50161;SDS011;36061;48.116;11.612;2022-07-12T18:01:02;1.73;;;1.47;;
50161;SDS011;36061;48.116;11.612;2022-07-12T18:03:36;1.30;;;1.20;;
50161;SDS011;36061;48.116;11.612;2022-07-12T18:06:02;1.20;;;1.00;;
50161;SDS011;36061;48.116;11.612;2022-07-12T18:08:29;3.03;;;1.70;;
50161;SDS011;36061;48.116;11.612;2022-07-12T18:10:56;4.03;;;1.40;;
50161;SDS011;36061;48.116;11.612;2022-07-12T18:13:22;2.53;;;1.27;;
50161;SDS011;36061;48.116;11.612;2022-07-12T18:16:07;0.87;;;0.80;;
50161;SDS011;36061;48.116;11.612;2022-07-12T18:18:33;1.43;;;1.30;;
50161;SDS011;36061;48.116;11.612;2022-07-12T18:20:59;1.10;;;1.00;;
50161;SDS011;36061;48.116;11.612;2022-07-12T18:23:25;2.43;;;1.67;;
50161;SDS011;36061;48.116;11.612;2022-07-12T18:25:51;1.13;;;1.00;;
50161;SDS011;36061;48.116;11.612;2022-07-12T18:28:17;1.43;;;0.90;;
50161;SDS011;36061;48.116;11.612;2022-07-12T18:30:47;1.20;;;0.90;;
50161;SDS011;36061;48.116;11.612;2022-07-12T18:33:14;1.30;;;0.93;;
50161;SDS011;36061;48.116;11.612;2022-07-12T18:35:41;1.37;;;1.10;;
50161;SDS011;36061;48.116;11.612;2022-07-12T18:38:08;7.93;;;1.23;;
50161;SDS011;36061;48.116;11.612;2022-07-12T18:40:34;1.30;;;1.20;;
50161;SDS011;36061;48.116;11.612;2022-07-12T18:43:00;0.90;;;0.90;;
50161;SDS011;36061;48.116;11.612;2022-07-12T18:45:26;1.10;;;0.90;;
50161;SDS011;36061;48.116;11.612;2022-07-12T18:47:52;1.13;;;0.90;;
50161;SDS011;36061;48.116;11.612;2022-07-12T18:50:18;2.90;;;1.30;;
50161;SDS011;36061;48.116;11.612;2022-07-12T18:52:44;3.00;;;1.10;;
50161;SDS011;36061;48.116;11.612;2022-07-12T18:55:10;1.17;;;1.10;;
50161;SDS011;36061;48.116;11.612;2022-07-12T18:57:36;1.80;;;1.23;;
50161;SDS011;36061;48.116;11.612;2022-07-12T19:00:03;2.07;;;1.10;;
50161;SDS011;36061;48.116;11.612;2022-07-12T19:02:31;1.30;;;1.20;;
50161;SDS011;36061;48.116;11.612;2022-07-12T19:04:56;1.90;;;1.17;;
50161;SDS011;36061;48.116;11.612;2022-07-12T19:07:23;1.40;;;1.30;;
50161;SDS011;36061;48.116;11.612;2022-07-12T19:09:48;1.00;;;0.90;;
50161;SDS011;36061;48.116;11.612;2022-07-12T19:12:14;1.60;;;1.50;;
50161;SDS011;36061;48.116;11.612;2022-07-12T19:14:40;5.13;;;2.03;;
50161;SDS011;36061;48.116;11.612;2022-07-12T19:17:06;3.93;;;1.70;;